sensor_id;sensor_type;location;lat;lon;timestamp;P1;durP1;ratioP1;P2;durP2;ratioP2
56670;SDS011;42545;50.054;8.306;2022-09-01T00:01:22;1.40;;;1.30;;
56670;SDS011;42545;50.054;8.306;2022-09-01T00:03:51;2.13;;;1.40;;
56670;SDS011;42545;50.054;8.306;2022-09-01T00:06:23;2.03;;;1.40;;
56670;SDS011;42545;50.054;8.306;2022-09-01T00:08:55;2.67;;;1.40;;
56670;SDS011;42545;50.054;8.306;2022-09-01T00:11:27;1.52;;;1.33;;
56670;SDS011;42545;50.054;8.306;2022-09-01T00:13:55;1.83;;;1.48;;
56670;SDS011;42545;50.054;8.306;2022-09-01T00:16:25;1.70;;;1.60;;
56670;SDS011;42545;50.054;8.306;2022-09-01T00:18:55;2.03;;;1.42;;
56670;SDS011;42545;50.054;8.306;2022-09-01T00:21:23;2.28;;;1.50;;
56670;SDS011;42545;50.054;8.306;2022-09-01T00:23:52;1.97;;;1.50;;
56670;SDS011;42545;50.054;8.306;2022-09-01T00:26:20;1.45;;;1.35;;
56670;SDS011;42545;50.054;8.306;2022-09-01T00:28:48;2.30;;;1.60;;
56670;SDS011;42545;50.054;8.306;2022-09-01T00:31:15;2.70;;;1.45;;
56670;SDS011;42545;50.054;8.306;2022-09-01T00:33:43;1.88;;;1.17;;
56670;SDS011;42545;50.054;8.306;2022-09-01T00:36:10;1.52;;;1.42;;
56670;SDS011;42545;50.054;8.306;2022-09-01T00:38:37;1.75;;;1.40;;
56670;SDS011;42545;50.054;8.306;2022-09-01T00:41:06;1.50;;;1.20;;
56670;SDS011;42545;50.054;8.306;2022-09-01T00:43:38;1.45;;;1.35;;
56670;SDS011;42545;50.054;8.306;2022-09-01T00:46:12;2.17;;;1.20;;
56670;SDS011;42545;50.054;8.306;2022-09-01T00:48:42;1.30;;;1.17;;
56670;SDS011;42545;50.054;8.306;2022-09-01T00:51:10;1.33;;;1.20;;
56670;SDS011;42545;50.054;8.306;2022-09-01T00:53:39;2.08;;;1.33;;
56670;SDS011;42545;50.054;8.306;2022-09-01T00:56:08;1.43;;;1.33;;
56670;SDS011;42545;50.054;8.306;2022-09-01T00:58:37;1.73;;;1.38;;
56670;SDS011;42545;50.054;8.306;2022-09-01T01:01:05;1.67;;;1.55;;
56670;SDS011;42545;50.054;8.306;2022-09-01T01:03:33;1.60;;;1.48;;
56670;SDS011;42545;50.054;8.306;2022-09-01T01:06:02;1.60;;;1.50;;
56670;SDS011;42545;50.054;8.306;2022-09-01T01:08:34;4.32;;;1.80;;
56670;SDS011;42545;50.054;8.306;2022-09-01T01:11:04;2.58;;;1.58;;
56670;SDS011;42545;50.054;8.306;2022-09-01T01:13:46;2.67;;;1.58;;
56670;SDS011;42545;50.054;8.306;2022-09-01T01:16:15;1.80;;;1.50;;
56670;SDS011;42545;50.054;8.306;2022-09-01T01:18:42;1.75;;;1.45;;
56670;SDS011;42545;50.054;8.306;2022-09-01T01:21:13;2.50;;;1.63;;
56670;SDS011;42545;50.054;8.306;2022-09-01T01:24:01;2.42;;;1.40;;
56670;SDS011;42545;50.054;8.306;2022-09-01T01:29:58;2.00;;;1.40;;
56670;SDS011;42545;50.054;8.306;2022-09-01T01:32:26;4.10;;;1.83;;
56670;SDS011;42545;50.054;8.306;2022-09-01T01:34:54;1.80;;;1.48;;
56670;SDS011;42545;50.054;8.306;2022-09-01T01:37:21;1.95;;;1.60;;
56670;SDS011;42545;50.054;8.306;2022-09-01T01:39:51;1.65;;;1.50;;
56670;SDS011;42545;50.054;8.306;2022-09-01T01:42:18;1.90;;;1.70;;
56670;SDS011;42545;50.054;8.306;2022-09-01T01:44:45;1.60;;;1.50;;
56670;SDS011;42545;50.054;8.306;2022-09-01T01:47:15;3.35;;;1.67;;
56670;SDS011;42545;50.054;8.306;2022-09-01T01:49:42;2.53;;;1.58;;
56670;SDS011;42545;50.054;8.306;2022-09-01T01:52:10;1.58;;;1.30;;
56670;SDS011;42545;50.054;8.306;2022-09-01T01:54:41;1.40;;;1.25;;
56670;SDS011;42545;50.054;8.306;2022-09-01T01:57:10;1.30;;;1.20;;
56670;SDS011;42545;50.054;8.306;2022-09-01T01:59:39;1.33;;;1.23;;
56670;SDS011;42545;50.054;8.306;2022-09-01T02:02:06;2.03;;;1.40;;
56670;SDS011;42545;50.054;8.306;2022-09-01T02:04:38;2.00;;;1.48;;
56670;SDS011;42545;50.054;8.306;2022-09-01T02:07:08;2.28;;;1.50;;
56670;SDS011;42545;50.054;8.306;2022-09-01T02:09:37;1.65;;;1.40;;
56670;SDS011;42545;50.054;8.306;2022-09-01T02:12:08;1.80;;;1.52;;
56670;SDS011;42545;50.054;8.306;2022-09-01T02:14:37;1.35;;;1.25;;
56670;SDS011;42545;50.054;8.306;2022-09-01T02:17:05;4.93;;;1.70;;
56670;SDS011;42545;50.054;8.306;2022-09-01T02:19:32;2.15;;;1.40;;
56670;SDS011;42545;50.054;8.306;2022-09-01T02:22:02;2.33;;;1.65;;
56670;SDS011;42545;50.054;8.306;2022-09-01T02:24:29;1.70;;;1.30;;
56670;SDS011;42545;50.054;8.306;2022-09-01T02:26:57;2.67;;;1.48;;
56670;SDS011;42545;50.054;8.306;2022-09-01T02:29:24;2.83;;;1.80;;
56670;SDS011;42545;50.054;8.306;2022-09-01T02:31:54;2.05;;;1.60;;
56670;SDS011;42545;50.054;8.306;2022-09-01T02:34:23;2.35;;;1.60;;
56670;SDS011;42545;50.054;8.306;2022-09-01T02:36:53;1.35;;;1.20;;
56670;SDS011;42545;50.054;8.306;2022-09-01T02:39:23;2.85;;;1.50;;
56670;SDS011;42545;50.054;8.306;2022-09-01T02:41:52;2.67;;;1.60;;
56670;SDS011;42545;50.054;8.306;2022-09-01T02:44:19;3.03;;;1.67;;
56670;SDS011;42545;50.054;8.306;2022-09-01T02:46:47;2.42;;;1.65;;
56670;SDS011;42545;50.054;8.306;2022-09-01T02:49:16;2.20;;;1.60;;
56670;SDS011;42545;50.054;8.306;2022-09-01T02:51:52;1.77;;;1.40;;
56670;SDS011;42545;50.054;8.306;2022-09-01T02:54:27;2.08;;;1.40;;
56670;SDS011;42545;50.054;8.306;2022-09-01T02:56:55;1.50;;;1.40;;
56670;SDS011;42545;50.054;8.306;2022-09-01T02:59:26;1.67;;;1.40;;
56670;SDS011;42545;50.054;8.306;2022-09-01T03:01:54;2.17;;;1.60;;
56670;SDS011;42545;50.054;8.306;2022-09-01T03:04:22;2.42;;;1.67;;
56670;SDS011;42545;50.054;8.306;2022-09-01T03:06:51;2.38;;;1.50;;
56670;SDS011;42545;50.054;8.306;2022-09-01T03:09:19;1.75;;;1.60;;
56670;SDS011;42545;50.054;8.306;2022-09-01T03:11:49;1.52;;;1.40;;
56670;SDS011;42545;50.054;8.306;2022-09-01T03:14:17;2.03;;;1.50;;
56670;SDS011;42545;50.054;8.306;2022-09-01T03:16:45;1.73;;;1.45;;
56670;SDS011;42545;50.054;8.306;2022-09-01T03:19:11;1.85;;;1.50;;
56670;SDS011;42545;50.054;8.306;2022-09-01T03:21:40;1.60;;;1.50;;
56670;SDS011;42545;50.054;8.306;2022-09-01T03:24:08;2.13;;;1.50;;
56670;SDS011;42545;50.054;8.306;2022-09-01T03:26:39;2.50;;;1.33;;
56670;SDS011;42545;50.054;8.306;2022-09-01T03:29:09;2.13;;;1.48;;
56670;SDS011;42545;50.054;8.306;2022-09-01T03:31:36;1.67;;;1.30;;
56670;SDS011;42545;50.054;8.306;2022-09-01T03:34:03;1.80;;;1.70;;
56670;SDS011;42545;50.054;8.306;2022-09-01T03:36:30;2.20;;;1.67;;
56670;SDS011;42545;50.054;8.306;2022-09-01T03:38:59;1.67;;;1.58;;
56670;SDS011;42545;50.054;8.306;2022-09-01T03:41:27;1.73;;;1.30;;
56670;SDS011;42545;50.054;8.306;2022-09-01T03:43:55;1.77;;;1.35;;
56670;SDS011;42545;50.054;8.306;2022-09-01T03:46:24;1.58;;;1.10;;
56670;SDS011;42545;50.054;8.306;2022-09-01T03:48:55;1.27;;;1.17;;
56670;SDS011;42545;50.054;8.306;2022-09-01T03:51:27;1.42;;;1.25;;
56670;SDS011;42545;50.054;8.306;2022-09-01T03:53:58;1.10;;;1.00;;
56670;SDS011;42545;50.054;8.306;2022-09-01T03:56:26;1.75;;;1.23;;
56670;SDS011;42545;50.054;8.306;2022-09-01T03:58:54;1.98;;;1.10;;
56670;SDS011;42545;50.054;8.306;2022-09-01T04:03:53;0.88;;;0.88;;
56670;SDS011;42545;50.054;8.306;2022-09-01T04:06:21;1.85;;;1.20;;
56670;SDS011;42545;50.054;8.306;2022-09-01T04:08:50;2.03;;;1.40;;
56670;SDS011;42545;50.054;8.306;2022-09-01T04:11:20;1.20;;;1.10;;
56670;SDS011;42545;50.054;8.306;2022-09-01T04:13:48;1.00;;;0.90;;
56670;SDS011;42545;50.054;8.306;2022-09-01T04:16:16;1.00;;;0.90;;
56670;SDS011;42545;50.054;8.306;2022-09-01T04:18:59;1.10;;;1.00;;
56670;SDS011;42545;50.054;8.306;2022-09-01T04:21:28;1.42;;;1.00;;
56670;SDS011;42545;50.054;8.306;2022-09-01T04:23:57;1.27;;;1.10;;
56670;SDS011;42545;50.054;8.306;2022-09-01T04:26:29;0.95;;;0.90;;
56670;SDS011;42545;50.054;8.306;2022-09-01T04:28:56;1.00;;;0.90;;
56670;SDS011;42545;50.054;8.306;2022-09-01T04:31:23;0.80;;;0.80;;
56670;SDS011;42545;50.054;8.306;2022-09-01T04:33:51;0.80;;;0.80;;
56670;SDS011;42545;50.054;8.306;2022-09-01T04:36:21;1.13;;;1.02;;
56670;SDS011;42545;50.054;8.306;2022-09-01T04:38:51;1.10;;;1.00;;
56670;SDS011;42545;50.054;8.306;2022-09-01T04:41:20;1.02;;;0.90;;
56670;SDS011;42545;50.054;8.306;2022-09-01T04:43:50;1.15;;;1.05;;
56670;SDS011;42545;50.054;8.306;2022-09-01T04:46:20;1.27;;;0.90;;
56670;SDS011;42545;50.054;8.306;2022-09-01T04:48:50;0.70;;;0.70;;
56670;SDS011;42545;50.054;8.306;2022-09-01T04:51:17;1.10;;;1.00;;
56670;SDS011;42545;50.054;8.306;2022-09-01T04:53:46;0.73;;;0.73;;
56670;SDS011;42545;50.054;8.306;2022-09-01T04:56:16;0.77;;;0.73;;
56670;SDS011;42545;50.054;8.306;2022-09-01T04:58:47;1.42;;;1.23;;
56670;SDS011;42545;50.054;8.306;2022-09-01T05:01:15;1.20;;;1.10;;
56670;SDS011;42545;50.054;8.306;2022-09-01T05:03:44;1.67;;;1.30;;
56670;SDS011;42545;50.054;8.306;2022-09-01T05:06:12;1.38;;;1.27;;
56670;SDS011;42545;50.054;8.306;2022-09-01T05:08:41;1.40;;;1.30;;
56670;SDS011;42545;50.054;8.306;2022-09-01T05:11:11;1.30;;;1.20;;
56670;SDS011;42545;50.054;8.306;2022-09-01T05:13:41;1.23;;;1.13;;
56670;SDS011;42545;50.054;8.306;2022-09-01T05:16:10;1.65;;;1.30;;
56670;SDS011;42545;50.054;8.306;2022-09-01T05:18:40;2.72;;;1.50;;
56670;SDS011;42545;50.054;8.306;2022-09-01T05:21:12;3.92;;;1.50;;
56670;SDS011;42545;50.054;8.306;2022-09-01T05:23:41;1.73;;;1.45;;
56670;SDS011;42545;50.054;8.306;2022-09-01T05:26:15;1.23;;;1.13;;
56670;SDS011;42545;50.054;8.306;2022-09-01T05:28:46;1.73;;;1.50;;
56670;SDS011;42545;50.054;8.306;2022-09-01T05:33:43;1.80;;;1.50;;
56670;SDS011;42545;50.054;8.306;2022-09-01T05:36:14;2.70;;;1.85;;
56670;SDS011;42545;50.054;8.306;2022-09-01T05:38:42;1.60;;;1.50;;
56670;SDS011;42545;50.054;8.306;2022-09-01T05:41:10;3.08;;;1.60;;
56670;SDS011;42545;50.054;8.306;2022-09-01T05:43:41;2.08;;;1.60;;
56670;SDS011;42545;50.054;8.306;2022-09-01T05:46:11;3.30;;;1.85;;
56670;SDS011;42545;50.054;8.306;2022-09-01T05:48:41;2.88;;;1.65;;
56670;SDS011;42545;50.054;8.306;2022-09-01T05:51:08;2.05;;;1.85;;
56670;SDS011;42545;50.054;8.306;2022-09-01T05:53:39;2.90;;;1.90;;
56670;SDS011;42545;50.054;8.306;2022-09-01T05:56:07;2.20;;;1.80;;
56670;SDS011;42545;50.054;8.306;2022-09-01T05:58:36;2.53;;;1.88;;
56670;SDS011;42545;50.054;8.306;2022-09-01T06:01:06;2.70;;;1.98;;
56670;SDS011;42545;50.054;8.306;2022-09-01T06:03:37;2.13;;;1.60;;
56670;SDS011;42545;50.054;8.306;2022-09-01T06:06:06;1.83;;;1.70;;
56670;SDS011;42545;50.054;8.306;2022-09-01T06:11:07;1.95;;;1.60;;
56670;SDS011;42545;50.054;8.306;2022-09-01T06:13:37;2.22;;;1.70;;
56670;SDS011;42545;50.054;8.306;2022-09-01T06:16:08;1.70;;;1.60;;
56670;SDS011;42545;50.054;8.306;2022-09-01T06:18:36;2.00;;;1.50;;
56670;SDS011;42545;50.054;8.306;2022-09-01T06:21:03;2.22;;;1.38;;
56670;SDS011;42545;50.054;8.306;2022-09-01T06:23:32;2.75;;;1.48;;
56670;SDS011;42545;50.054;8.306;2022-09-01T06:26:00;2.75;;;2.13;;
56670;SDS011;42545;50.054;8.306;2022-09-01T06:28:27;2.08;;;1.77;;
56670;SDS011;42545;50.054;8.306;2022-09-01T06:30:55;1.88;;;1.67;;
56670;SDS011;42545;50.054;8.306;2022-09-01T06:33:24;2.03;;;1.67;;
56670;SDS011;42545;50.054;8.306;2022-09-01T06:35:51;3.65;;;1.85;;
56670;SDS011;42545;50.054;8.306;2022-09-01T06:38:20;3.05;;;1.77;;
56670;SDS011;42545;50.054;8.306;2022-09-01T06:40:49;2.42;;;1.70;;
56670;SDS011;42545;50.054;8.306;2022-09-01T06:43:16;2.47;;;1.80;;
56670;SDS011;42545;50.054;8.306;2022-09-01T06:45:45;1.70;;;1.60;;
56670;SDS011;42545;50.054;8.306;2022-09-01T06:48:14;3.35;;;1.50;;
56670;SDS011;42545;50.054;8.306;2022-09-01T06:50:43;1.75;;;1.40;;
56670;SDS011;42545;50.054;8.306;2022-09-01T06:53:10;2.60;;;1.83;;
56670;SDS011;42545;50.054;8.306;2022-09-01T06:55:42;1.65;;;1.50;;
56670;SDS011;42545;50.054;8.306;2022-09-01T06:58:14;2.80;;;1.80;;
56670;SDS011;42545;50.054;8.306;2022-09-01T07:00:41;1.75;;;1.63;;
56670;SDS011;42545;50.054;8.306;2022-09-01T07:03:09;2.35;;;1.50;;
56670;SDS011;42545;50.054;8.306;2022-09-01T07:05:38;2.47;;;1.73;;
56670;SDS011;42545;50.054;8.306;2022-09-01T07:08:08;4.53;;;2.10;;
56670;SDS011;42545;50.054;8.306;2022-09-01T07:10:42;2.53;;;1.70;;
56670;SDS011;42545;50.054;8.306;2022-09-01T07:13:14;2.20;;;1.55;;
56670;SDS011;42545;50.054;8.306;2022-09-01T07:15:48;6.72;;;2.05;;
56670;SDS011;42545;50.054;8.306;2022-09-01T07:18:17;3.58;;;2.20;;
56670;SDS011;42545;50.054;8.306;2022-09-01T07:20:46;4.40;;;2.30;;
56670;SDS011;42545;50.054;8.306;2022-09-01T07:23:17;3.88;;;2.20;;
56670;SDS011;42545;50.054;8.306;2022-09-01T07:25:46;3.97;;;2.08;;
56670;SDS011;42545;50.054;8.306;2022-09-01T07:28:19;5.10;;;1.77;;
56670;SDS011;42545;50.054;8.306;2022-09-01T07:30:48;4.05;;;1.85;;
56670;SDS011;42545;50.054;8.306;2022-09-01T07:33:17;2.83;;;1.88;;
56670;SDS011;42545;50.054;8.306;2022-09-01T07:35:48;3.47;;;2.00;;
56670;SDS011;42545;50.054;8.306;2022-09-01T07:38:19;4.57;;;2.20;;
56670;SDS011;42545;50.054;8.306;2022-09-01T07:40:46;2.50;;;2.00;;
56670;SDS011;42545;50.054;8.306;2022-09-01T07:43:14;3.85;;;1.95;;
56670;SDS011;42545;50.054;8.306;2022-09-01T07:45:47;2.00;;;1.80;;
56670;SDS011;42545;50.054;8.306;2022-09-01T07:48:16;4.00;;;1.50;;
56670;SDS011;42545;50.054;8.306;2022-09-01T07:50:46;3.83;;;1.88;;
56670;SDS011;42545;50.054;8.306;2022-09-01T07:53:13;6.57;;;2.55;;
56670;SDS011;42545;50.054;8.306;2022-09-01T07:55:44;2.10;;;1.88;;
56670;SDS011;42545;50.054;8.306;2022-09-01T07:58:14;2.15;;;1.60;;
56670;SDS011;42545;50.054;8.306;2022-09-01T08:00:40;2.67;;;1.73;;
56670;SDS011;42545;50.054;8.306;2022-09-01T08:03:09;3.80;;;2.10;;
56670;SDS011;42545;50.054;8.306;2022-09-01T08:05:35;3.25;;;2.08;;
56670;SDS011;42545;50.054;8.306;2022-09-01T08:08:02;3.55;;;1.98;;
56670;SDS011;42545;50.054;8.306;2022-09-01T08:10:30;1.80;;;1.60;;
56670;SDS011;42545;50.054;8.306;2022-09-01T08:12:59;3.42;;;2.13;;
56670;SDS011;42545;50.054;8.306;2022-09-01T08:15:26;2.78;;;2.00;;
56670;SDS011;42545;50.054;8.306;2022-09-01T08:17:52;3.00;;;1.98;;
56670;SDS011;42545;50.054;8.306;2022-09-01T08:20:22;3.20;;;1.90;;
56670;SDS011;42545;50.054;8.306;2022-09-01T08:22:50;3.95;;;2.00;;
56670;SDS011;42545;50.054;8.306;2022-09-01T08:25:17;2.17;;;1.67;;
56670;SDS011;42545;50.054;8.306;2022-09-01T08:27:44;2.55;;;1.75;;
56670;SDS011;42545;50.054;8.306;2022-09-01T08:30:13;5.38;;;2.08;;
56670;SDS011;42545;50.054;8.306;2022-09-01T08:32:40;2.83;;;1.88;;
56670;SDS011;42545;50.054;8.306;2022-09-01T08:35:08;5.28;;;2.03;;
56670;SDS011;42545;50.054;8.306;2022-09-01T08:37:38;2.35;;;1.70;;
56670;SDS011;42545;50.054;8.306;2022-09-01T08:40:06;3.63;;;2.20;;
56670;SDS011;42545;50.054;8.306;2022-09-01T08:42:45;2.50;;;1.83;;
56670;SDS011;42545;50.054;8.306;2022-09-01T08:45:26;6.35;;;2.20;;
56670;SDS011;42545;50.054;8.306;2022-09-01T08:47:59;3.38;;;2.22;;
56670;SDS011;42545;50.054;8.306;2022-09-01T08:50:35;2.55;;;1.95;;
56670;SDS011;42545;50.054;8.306;2022-09-01T08:53:06;2.47;;;1.60;;
56670;SDS011;42545;50.054;8.306;2022-09-01T08:55:50;3.70;;;1.90;;
56670;SDS011;42545;50.054;8.306;2022-09-01T08:58:22;4.00;;;2.17;;
56670;SDS011;42545;50.054;8.306;2022-09-01T09:00:53;4.38;;;2.05;;
56670;SDS011;42545;50.054;8.306;2022-09-01T09:03:25;4.47;;;2.03;;
56670;SDS011;42545;50.054;8.306;2022-09-01T09:06:08;3.38;;;2.08;;
56670;SDS011;42545;50.054;8.306;2022-09-01T09:08:43;2.13;;;1.70;;
56670;SDS011;42545;50.054;8.306;2022-09-01T09:11:36;2.28;;;1.60;;
56670;SDS011;42545;50.054;8.306;2022-09-01T09:14:34;2.72;;;1.65;;
56670;SDS011;42545;50.054;8.306;2022-09-01T09:17:20;2.28;;;1.85;;
56670;SDS011;42545;50.054;8.306;2022-09-01T09:22:20;3.10;;;1.92;;
56670;SDS011;42545;50.054;8.306;2022-09-01T09:24:48;2.53;;;1.70;;
56670;SDS011;42545;50.054;8.306;2022-09-01T09:27:21;3.17;;;2.10;;
56670;SDS011;42545;50.054;8.306;2022-09-01T09:29:51;3.20;;;2.58;;
56670;SDS011;42545;50.054;8.306;2022-09-01T09:32:21;3.55;;;2.13;;
56670;SDS011;42545;50.054;8.306;2022-09-01T09:34:50;2.97;;;1.65;;
56670;SDS011;42545;50.054;8.306;2022-09-01T09:37:23;3.97;;;1.92;;
56670;SDS011;42545;50.054;8.306;2022-09-01T09:40:06;2.90;;;2.50;;
56670;SDS011;42545;50.054;8.306;2022-09-01T09:42:35;2.20;;;2.00;;
56670;SDS011;42545;50.054;8.306;2022-09-01T09:45:05;2.00;;;1.80;;
56670;SDS011;42545;50.054;8.306;2022-09-01T09:47:44;4.65;;;1.90;;
56670;SDS011;42545;50.054;8.306;2022-09-01T09:50:13;2.90;;;1.80;;
56670;SDS011;42545;50.054;8.306;2022-09-01T09:52:44;3.58;;;1.90;;
56670;SDS011;42545;50.054;8.306;2022-09-01T09:55:20;2.05;;;1.67;;
56670;SDS011;42545;50.054;8.306;2022-09-01T09:57:51;3.40;;;2.00;;
56670;SDS011;42545;50.054;8.306;2022-09-01T10:02:54;2.67;;;1.92;;
56670;SDS011;42545;50.054;8.306;2022-09-01T10:05:36;3.63;;;2.20;;
56670;SDS011;42545;50.054;8.306;2022-09-01T10:08:07;3.10;;;2.40;;
56670;SDS011;42545;50.054;8.306;2022-09-01T10:13:07;2.53;;;2.00;;
56670;SDS011;42545;50.054;8.306;2022-09-01T10:15:40;2.60;;;1.83;;
56670;SDS011;42545;50.054;8.306;2022-09-01T10:18:15;4.00;;;2.20;;
56670;SDS011;42545;50.054;8.306;2022-09-01T10:20:45;3.13;;;2.00;;
56670;SDS011;42545;50.054;8.306;2022-09-01T10:23:19;2.65;;;2.15;;
56670;SDS011;42545;50.054;8.306;2022-09-01T10:25:46;2.63;;;1.80;;
56670;SDS011;42545;50.054;8.306;2022-09-01T10:28:15;4.13;;;2.10;;
56670;SDS011;42545;50.054;8.306;2022-09-01T10:30:48;4.63;;;2.17;;
56670;SDS011;42545;50.054;8.306;2022-09-01T10:33:20;2.28;;;1.92;;
56670;SDS011;42545;50.054;8.306;2022-09-01T10:35:48;3.65;;;2.17;;
56670;SDS011;42545;50.054;8.306;2022-09-01T10:38:18;4.85;;;1.90;;
56670;SDS011;42545;50.054;8.306;2022-09-01T10:40:48;2.25;;;1.90;;
56670;SDS011;42545;50.054;8.306;2022-09-01T10:43:33;2.78;;;1.98;;
56670;SDS011;42545;50.054;8.306;2022-09-01T10:49:17;2.50;;;1.58;;
56670;SDS011;42545;50.054;8.306;2022-09-01T10:52:09;4.53;;;2.10;;
56670;SDS011;42545;50.054;8.306;2022-09-01T10:57:39;3.50;;;2.20;;
56670;SDS011;42545;50.054;8.306;2022-09-01T11:00:18;2.75;;;2.00;;
56670;SDS011;42545;50.054;8.306;2022-09-01T11:09:33;5.18;;;1.83;;
56670;SDS011;42545;50.054;8.306;2022-09-01T11:12:14;2.72;;;1.60;;
56670;SDS011;42545;50.054;8.306;2022-09-01T11:14:57;6.20;;;2.03;;
56670;SDS011;42545;50.054;8.306;2022-09-01T11:17:33;4.20;;;2.00;;
56670;SDS011;42545;50.054;8.306;2022-09-01T11:20:04;2.80;;;1.70;;
56670;SDS011;42545;50.054;8.306;2022-09-01T11:22:36;4.28;;;2.10;;
56670;SDS011;42545;50.054;8.306;2022-09-01T11:25:10;2.63;;;2.15;;
56670;SDS011;42545;50.054;8.306;2022-09-01T11:27:57;4.38;;;1.90;;
56670;SDS011;42545;50.054;8.306;2022-09-01T11:30:32;7.28;;;1.80;;
56670;SDS011;42545;50.054;8.306;2022-09-01T11:33:07;5.88;;;1.83;;
56670;SDS011;42545;50.054;8.306;2022-09-01T11:35:45;3.55;;;1.80;;
56670;SDS011;42545;50.054;8.306;2022-09-01T11:38:14;4.47;;;2.20;;
56670;SDS011;42545;50.054;8.306;2022-09-01T11:40:43;4.15;;;2.05;;
56670;SDS011;42545;50.054;8.306;2022-09-01T11:43:20;2.65;;;1.92;;
56670;SDS011;42545;50.054;8.306;2022-09-01T11:45:50;2.53;;;2.00;;
56670;SDS011;42545;50.054;8.306;2022-09-01T11:48:23;2.65;;;2.03;;
56670;SDS011;42545;50.054;8.306;2022-09-01T11:50:55;6.40;;;2.17;;
56670;SDS011;42545;50.054;8.306;2022-09-01T11:53:25;3.17;;;1.63;;
56670;SDS011;42545;50.054;8.306;2022-09-01T11:55:53;3.60;;;2.00;;
56670;SDS011;42545;50.054;8.306;2022-09-01T11:58:33;4.78;;;1.75;;
56670;SDS011;42545;50.054;8.306;2022-09-01T12:01:14;3.13;;;1.77;;
56670;SDS011;42545;50.054;8.306;2022-09-01T12:03:43;3.17;;;1.90;;
56670;SDS011;42545;50.054;8.306;2022-09-01T12:06:17;3.15;;;1.58;;
56670;SDS011;42545;50.054;8.306;2022-09-01T12:08:55;1.83;;;1.55;;
56670;SDS011;42545;50.054;8.306;2022-09-01T12:11:24;3.75;;;1.75;;
56670;SDS011;42545;50.054;8.306;2022-09-01T12:13:55;2.40;;;1.67;;
56670;SDS011;42545;50.054;8.306;2022-09-01T12:16:24;3.20;;;2.10;;
56670;SDS011;42545;50.054;8.306;2022-09-01T12:18:52;2.17;;;1.70;;
56670;SDS011;42545;50.054;8.306;2022-09-01T12:21:21;2.00;;;1.63;;
56670;SDS011;42545;50.054;8.306;2022-09-01T12:23:50;2.17;;;1.80;;
56670;SDS011;42545;50.054;8.306;2022-09-01T12:36:34;5.15;;;1.90;;
56670;SDS011;42545;50.054;8.306;2022-09-01T12:39:20;2.42;;;1.92;;
56670;SDS011;42545;50.054;8.306;2022-09-01T12:42:00;2.47;;;1.65;;
56670;SDS011;42545;50.054;8.306;2022-09-01T12:44:29;2.13;;;1.70;;
56670;SDS011;42545;50.054;8.306;2022-09-01T12:47:00;2.88;;;1.90;;
56670;SDS011;42545;50.054;8.306;2022-09-01T12:49:35;2.35;;;1.70;;
56670;SDS011;42545;50.054;8.306;2022-09-01T12:52:06;2.25;;;1.80;;
56670;SDS011;42545;50.054;8.306;2022-09-01T12:54:38;1.65;;;1.55;;
56670;SDS011;42545;50.054;8.306;2022-09-01T12:57:05;1.88;;;1.60;;
56670;SDS011;42545;50.054;8.306;2022-09-01T12:59:32;2.10;;;1.90;;
56670;SDS011;42545;50.054;8.306;2022-09-01T13:04:53;3.92;;;1.73;;
56670;SDS011;42545;50.054;8.306;2022-09-01T13:07:21;1.75;;;1.58;;
56670;SDS011;42545;50.054;8.306;2022-09-01T13:09:48;3.53;;;1.77;;
56670;SDS011;42545;50.054;8.306;2022-09-01T13:12:16;2.88;;;2.10;;
56670;SDS011;42545;50.054;8.306;2022-09-01T13:14:44;2.15;;;1.83;;
56670;SDS011;42545;50.054;8.306;2022-09-01T13:17:11;2.63;;;1.92;;
56670;SDS011;42545;50.054;8.306;2022-09-01T13:19:39;3.75;;;1.85;;
56670;SDS011;42545;50.054;8.306;2022-09-01T13:22:05;2.88;;;1.90;;
56670;SDS011;42545;50.054;8.306;2022-09-01T13:24:35;2.23;;;1.67;;
56670;SDS011;42545;50.054;8.306;2022-09-01T13:27:04;2.72;;;1.88;;
56670;SDS011;42545;50.054;8.306;2022-09-01T13:29:31;2.30;;;1.80;;
56670;SDS011;42545;50.054;8.306;2022-09-01T13:31:58;1.90;;;1.70;;
56670;SDS011;42545;50.054;8.306;2022-09-01T13:34:25;2.60;;;1.60;;
56670;SDS011;42545;50.054;8.306;2022-09-01T13:36:53;2.70;;;1.70;;
56670;SDS011;42545;50.054;8.306;2022-09-01T13:39:20;2.60;;;1.90;;
56670;SDS011;42545;50.054;8.306;2022-09-01T13:41:48;3.00;;;2.00;;
56670;SDS011;42545;50.054;8.306;2022-09-01T13:44:15;2.33;;;1.85;;
56670;SDS011;42545;50.054;8.306;2022-09-01T13:46:42;2.20;;;1.90;;
56670;SDS011;42545;50.054;8.306;2022-09-01T13:49:10;2.72;;;2.17;;
56670;SDS011;42545;50.054;8.306;2022-09-01T13:51:38;1.70;;;1.60;;
56670;SDS011;42545;50.054;8.306;2022-09-01T13:54:05;2.65;;;1.70;;
56670;SDS011;42545;50.054;8.306;2022-09-01T13:56:32;3.22;;;1.70;;
56670;SDS011;42545;50.054;8.306;2022-09-01T13:59:00;3.78;;;2.05;;
56670;SDS011;42545;50.054;8.306;2022-09-01T14:01:27;3.55;;;1.88;;
56670;SDS011;42545;50.054;8.306;2022-09-01T14:03:54;2.17;;;1.77;;
56670;SDS011;42545;50.054;8.306;2022-09-01T14:06:22;2.00;;;1.80;;
56670;SDS011;42545;50.054;8.306;2022-09-01T14:08:49;1.83;;;1.65;;
56670;SDS011;42545;50.054;8.306;2022-09-01T14:11:16;2.17;;;1.75;;
56670;SDS011;42545;50.054;8.306;2022-09-01T14:13:44;1.55;;;1.42;;
56670;SDS011;42545;50.054;8.306;2022-09-01T14:16:12;2.13;;;1.42;;
56670;SDS011;42545;50.054;8.306;2022-09-01T14:18:40;2.30;;;1.75;;
56670;SDS011;42545;50.054;8.306;2022-09-01T14:21:09;2.03;;;1.45;;
56670;SDS011;42545;50.054;8.306;2022-09-01T14:23:38;1.88;;;1.50;;
56670;SDS011;42545;50.054;8.306;2022-09-01T14:26:07;2.03;;;1.83;;
56670;SDS011;42545;50.054;8.306;2022-09-01T14:31:06;2.10;;;1.50;;
56670;SDS011;42545;50.054;8.306;2022-09-01T14:33:36;2.00;;;1.58;;
56670;SDS011;42545;50.054;8.306;2022-09-01T14:36:03;2.15;;;1.85;;
56670;SDS011;42545;50.054;8.306;2022-09-01T14:38:31;2.65;;;1.88;;
56670;SDS011;42545;50.054;8.306;2022-09-01T14:41:00;2.92;;;1.80;;
56670;SDS011;42545;50.054;8.306;2022-09-01T14:43:27;1.92;;;1.73;;
56670;SDS011;42545;50.054;8.306;2022-09-01T14:46:03;1.63;;;1.50;;
56670;SDS011;42545;50.054;8.306;2022-09-01T14:48:31;2.00;;;1.80;;
56670;SDS011;42545;50.054;8.306;2022-09-01T14:51:01;1.92;;;1.73;;
56670;SDS011;42545;50.054;8.306;2022-09-01T14:53:34;3.15;;;1.73;;
56670;SDS011;42545;50.054;8.306;2022-09-01T14:56:02;2.35;;;1.80;;
56670;SDS011;42545;50.054;8.306;2022-09-01T14:58:28;2.10;;;1.80;;
56670;SDS011;42545;50.054;8.306;2022-09-01T15:00:56;2.00;;;1.80;;
56670;SDS011;42545;50.054;8.306;2022-09-01T15:03:23;1.75;;;1.65;;
56670;SDS011;42545;50.054;8.306;2022-09-01T15:05:51;2.60;;;1.73;;
56670;SDS011;42545;50.054;8.306;2022-09-01T15:08:20;1.70;;;1.60;;
56670;SDS011;42545;50.054;8.306;2022-09-01T15:10:48;1.73;;;1.52;;
56670;SDS011;42545;50.054;8.306;2022-09-01T15:13:14;1.50;;;1.40;;
56670;SDS011;42545;50.054;8.306;2022-09-01T15:15:41;1.75;;;1.60;;
56670;SDS011;42545;50.054;8.306;2022-09-01T15:18:08;7.20;;;1.92;;
56670;SDS011;42545;50.054;8.306;2022-09-01T15:20:38;4.70;;;2.10;;
56670;SDS011;42545;50.054;8.306;2022-09-01T15:23:15;4.35;;;1.92;;
56670;SDS011;42545;50.054;8.306;2022-09-01T15:25:44;3.67;;;1.80;;
56670;SDS011;42545;50.054;8.306;2022-09-01T15:28:12;4.03;;;2.00;;
56670;SDS011;42545;50.054;8.306;2022-09-01T15:30:39;4.03;;;2.03;;
56670;SDS011;42545;50.054;8.306;2022-09-01T15:33:08;3.30;;;1.70;;
56670;SDS011;42545;50.054;8.306;2022-09-01T15:35:34;1.77;;;1.50;;
56670;SDS011;42545;50.054;8.306;2022-09-01T15:38:03;1.95;;;1.50;;
56670;SDS011;42545;50.054;8.306;2022-09-01T15:40:31;2.58;;;1.40;;
56670;SDS011;42545;50.054;8.306;2022-09-01T15:43:00;4.18;;;1.95;;
56670;SDS011;42545;50.054;8.306;2022-09-01T15:45:30;2.10;;;1.80;;
56670;SDS011;42545;50.054;8.306;2022-09-01T15:47:58;2.30;;;1.75;;
56670;SDS011;42545;50.054;8.306;2022-09-01T15:50:26;1.98;;;1.77;;
56670;SDS011;42545;50.054;8.306;2022-09-01T15:52:54;2.80;;;1.60;;